sensor_id;sensor_type;location;lat;lon;timestamp;pressure;altitude;pressure_sealevel;temperature;humidity
82392;BME280;72030;52.284;20.890;2024-01-16T00:00:06;98247.27;;;18.59;28.65
82392;BME280;72030;52.284;20.890;2024-01-16T00:02:36;98252.69;;;18.56;28.62
82392;BME280;72030;52.284;20.890;2024-01-16T00:05:06;98258.52;;;18.51;28.79
82392;BME280;72030;52.284;20.890;2024-01-16T00:07:38;98260.20;;;18.52;28.68
82392;BME280;72030;52.284;20.890;2024-01-16T00:10:09;98261.11;;;18.48;28.74
82392;BME280;72030;52.284;20.890;2024-01-16T00:12:39;98267.73;;;18.47;28.70
82392;BME280;72030;52.284;20.890;2024-01-16T00:15:10;98274.02;;;18.43;28.73
82392;BME280;72030;52.284;20.890;2024-01-16T00:17:39;98280.14;;;18.42;28.72
82392;BME280;72030;52.284;20.890;2024-01-16T00:20:08;98284.27;;;18.39;28.85
82392;BME280;72030;52.284;20.890;2024-01-16T00:22:38;98291.89;;;18.36;28.71
82392;BME280;72030;52.284;20.890;2024-01-16T00:25:08;98304.84;;;18.35;28.87
82392;BME280;72030;52.284;20.890;2024-01-16T00:27:37;98305.92;;;18.33;28.94
82392;BME280;72030;52.284;20.890;2024-01-16T00:30:07;98308.20;;;18.31;28.99
82392;BME280;72030;52.284;20.890;2024-01-16T00:32:36;98314.04;;;18.29;28.97
82392;BME280;72030;52.284;20.890;2024-01-16T00:35:06;98319.56;;;18.26;28.94
82392;BME280;72030;52.284;20.890;2024-01-16T00:37:36;98318.80;;;18.22;28.98
82392;BME280;72030;52.284;20.890;2024-01-16T00:40:08;98324.27;;;18.22;28.71
82392;BME280;72030;52.284;20.890;2024-01-16T00:42:37;98325.58;;;18.21;28.96
82392;BME280;72030;52.284;20.890;2024-01-16T00:45:07;98329.27;;;18.19;29.13
82392;BME280;72030;52.284;20.890;2024-01-16T00:47:36;98338.15;;;18.16;29.07
82392;BME280;72030;52.284;20.890;2024-01-16T00:50:06;98342.44;;;18.13;28.98
82392;BME280;72030;52.284;20.890;2024-01-16T00:52:36;98343.48;;;18.12;28.82
82392;BME280;72030;52.284;20.890;2024-01-16T00:55:06;98352.04;;;18.10;29.06
82392;BME280;72030;52.284;20.890;2024-01-16T00:57:35;98361.04;;;18.08;28.91
82392;BME280;72030;52.284;20.890;2024-01-16T01:00:06;98364.10;;;18.05;29.05
82392;BME280;72030;52.284;20.890;2024-01-16T01:02:37;98365.42;;;18.04;29.08
82392;BME280;72030;52.284;20.890;2024-01-16T01:05:08;98365.48;;;18.01;29.01
82392;BME280;72030;52.284;20.890;2024-01-16T01:07:37;98373.69;;;18.00;29.11
82392;BME280;72030;52.284;20.890;2024-01-16T01:10:07;98374.08;;;17.98;28.79
82392;BME280;72030;52.284;20.890;2024-01-16T01:12:36;98371.73;;;17.96;28.92
82392;BME280;72030;52.284;20.890;2024-01-16T01:15:06;98370.44;;;17.94;28.97
82392;BME280;72030;52.284;20.890;2024-01-16T01:17:35;98373.37;;;17.93;28.84
82392;BME280;72030;52.284;20.890;2024-01-16T01:20:07;98378.73;;;17.92;29.23
82392;BME280;72030;52.284;20.890;2024-01-16T01:22:36;98380.01;;;17.89;29.12
82392;BME280;72030;52.284;20.890;2024-01-16T01:25:08;98378.77;;;17.89;28.96
82392;BME280;72030;52.284;20.890;2024-01-16T01:27:38;98386.79;;;17.83;29.04
82392;BME280;72030;52.284;20.890;2024-01-16T01:30:08;98388.80;;;17.82;29.07
82392;BME280;72030;52.284;20.890;2024-01-16T01:32:39;98387.80;;;17.82;29.12
82392;BME280;72030;52.284;20.890;2024-01-16T01:35:08;98395.11;;;17.81;29.08
82392;BME280;72030;52.284;20.890;2024-01-16T01:37:38;98399.35;;;17.81;29.13
82392;BME280;72030;52.284;20.890;2024-01-16T01:40:09;98406.97;;;17.80;29.24
82392;BME280;72030;52.284;20.890;2024-01-16T01:42:41;98415.54;;;17.79;29.13
82392;BME280;72030;52.284;20.890;2024-01-16T01:45:11;98415.27;;;17.78;29.14
82392;BME280;72030;52.284;20.890;2024-01-16T01:47:41;98422.41;;;17.79;29.28
82392;BME280;72030;52.284;20.890;2024-01-16T01:50:11;98424.58;;;17.79;29.29
82392;BME280;72030;52.284;20.890;2024-01-16T01:52:41;98434.58;;;17.77;29.44
82392;BME280;72030;52.284;20.890;2024-01-16T01:55:13;98444.10;;;17.77;29.39
82392;BME280;72030;52.284;20.890;2024-01-16T01:57:42;98446.16;;;17.78;29.38
82392;BME280;72030;52.284;20.890;2024-01-16T02:00:13;98457.13;;;17.75;29.50
82392;BME280;72030;52.284;20.890;2024-01-16T02:02:46;98454.75;;;17.74;29.55
82392;BME280;72030;52.284;20.890;2024-01-16T02:05:15;98456.67;;;17.74;29.38
82392;BME280;72030;52.284;20.890;2024-01-16T02:07:44;98459.04;;;17.71;29.38
82392;BME280;72030;52.284;20.890;2024-01-16T02:10:13;98466.23;;;17.69;29.36
82392;BME280;72030;52.284;20.890;2024-01-16T02:12:42;98469.77;;;17.68;29.56
82392;BME280;72030;52.284;20.890;2024-01-16T02:15:11;98482.84;;;17.68;29.58
82392;BME280;72030;52.284;20.890;2024-01-16T02:17:40;98480.92;;;17.68;29.52
82392;BME280;72030;52.284;20.890;2024-01-16T02:20:11;98490.28;;;17.65;29.52
82392;BME280;72030;52.284;20.890;2024-01-16T02:22:40;98489.89;;;17.63;29.57
82392;BME280;72030;52.284;20.890;2024-01-16T02:25:12;98498.55;;;17.61;29.66
82392;BME280;72030;52.284;20.890;2024-01-16T02:27:40;98502.87;;;17.62;29.65
82392;BME280;72030;52.284;20.890;2024-01-16T02:30:10;98508.71;;;17.62;29.43
82392;BME280;72030;52.284;20.890;2024-01-16T02:32:39;98512.09;;;17.59;29.63
82392;BME280;72030;52.284;20.890;2024-01-16T02:35:09;98517.73;;;17.59;29.67
82392;BME280;72030;52.284;20.890;2024-01-16T02:37:38;98519.40;;;17.58;29.62
82392;BME280;72030;52.284;20.890;2024-01-16T02:40:08;98522.04;;;17.58;29.63
82392;BME280;72030;52.284;20.890;2024-01-16T02:42:38;98525.64;;;17.55;29.48
82392;BME280;72030;52.284;20.890;2024-01-16T02:45:08;98537.66;;;17.54;29.55
82392;BME280;72030;52.284;20.890;2024-01-16T02:47:37;98543.43;;;17.53;29.47
82392;BME280;72030;52.284;20.890;2024-01-16T02:50:07;98544.17;;;17.50;29.51
82392;BME280;72030;52.284;20.890;2024-01-16T02:52:37;98545.83;;;17.49;29.29
82392;BME280;72030;52.284;20.890;2024-01-16T02:55:08;98549.62;;;17.48;29.43
82392;BME280;72030;52.284;20.890;2024-01-16T02:57:37;98549.50;;;17.47;29.34
82392;BME280;72030;52.284;20.890;2024-01-16T03:00:07;98556.79;;;17.46;29.36
82392;BME280;72030;52.284;20.890;2024-01-16T03:02:36;98556.98;;;17.46;29.31
82392;BME280;72030;52.284;20.890;2024-01-16T03:05:05;98563.48;;;17.44;29.37
82392;BME280;72030;52.284;20.890;2024-01-16T03:07:35;98569.56;;;17.43;29.39
82392;BME280;72030;52.284;20.890;2024-01-16T03:10:05;98576.21;;;17.41;29.30
82392;BME280;72030;52.284;20.890;2024-01-16T03:12:34;98580.31;;;17.43;29.13
82392;BME280;72030;52.284;20.890;2024-01-16T03:15:04;98582.41;;;17.41;29.30
82392;BME280;72030;52.284;20.890;2024-01-16T03:17:33;98581.98;;;17.39;29.39
82392;BME280;72030;52.284;20.890;2024-01-16T03:20:02;98586.33;;;17.37;29.21
82392;BME280;72030;52.284;20.890;2024-01-16T03:22:31;98591.52;;;17.37;29.38
82392;BME280;72030;52.284;20.890;2024-01-16T03:25:00;98592.33;;;17.38;29.33
82392;BME280;72030;52.284;20.890;2024-01-16T03:27:30;98599.95;;;17.35;29.59
82392;BME280;72030;52.284;20.890;2024-01-16T03:29:59;98603.52;;;17.34;29.55
82392;BME280;72030;52.284;20.890;2024-01-16T03:32:28;98601.91;;;17.32;29.64
82392;BME280;72030;52.284;20.890;2024-01-16T03:34:57;98605.73;;;17.33;29.54
82392;BME280;72030;52.284;20.890;2024-01-16T03:37:26;98610.12;;;17.31;29.63
82392;BME280;72030;52.284;20.890;2024-01-16T03:39:54;98610.89;;;17.32;29.45
82392;BME280;72030;52.284;20.890;2024-01-16T03:42:25;98611.05;;;17.30;29.63
82392;BME280;72030;52.284;20.890;2024-01-16T03:44:54;98620.08;;;17.30;29.53
82392;BME280;72030;52.284;20.890;2024-01-16T03:47:22;98623.92;;;17.30;29.46
82392;BME280;72030;52.284;20.890;2024-01-16T03:49:52;98626.66;;;17.28;29.62
82392;BME280;72030;52.284;20.890;2024-01-16T03:52:20;98633.94;;;17.26;30.10
82392;BME280;72030;52.284;20.890;2024-01-16T03:54:50;98638.55;;;17.25;30.38
82392;BME280;72030;52.284;20.890;2024-01-16T03:57:19;98644.63;;;17.26;30.45
82392;BME280;72030;52.284;20.890;2024-01-16T03:59:48;98649.16;;;17.27;30.64
82392;BME280;72030;52.284;20.890;2024-01-16T04:02:17;98660.79;;;17.24;30.88
82392;BME280;72030;52.284;20.890;2024-01-16T04:04:45;98661.02;;;17.26;30.75
82392;BME280;72030;52.284;20.890;2024-01-16T04:07:14;98667.35;;;17.24;30.63
82392;BME280;72030;52.284;20.890;2024-01-16T04:09:44;98673.42;;;17.25;30.54
82392;BME280;72030;52.284;20.890;2024-01-16T04:12:12;98673.45;;;17.25;30.59
82392;BME280;72030;52.284;20.890;2024-01-16T04:15:01;98678.27;;;17.21;30.61
82392;BME280;72030;52.284;20.890;2024-01-16T04:17:31;98682.83;;;17.22;30.69
82392;BME280;72030;52.284;20.890;2024-01-16T04:20:00;98684.63;;;17.22;30.71
82392;BME280;72030;52.284;20.890;2024-01-16T04:22:29;98691.77;;;17.20;30.62
82392;BME280;72030;52.284;20.890;2024-01-16T04:24:58;98692.85;;;17.20;30.65
82392;BME280;72030;52.284;20.890;2024-01-16T04:27:27;98693.91;;;17.20;30.69
82392;BME280;72030;52.284;20.890;2024-01-16T04:29:56;98699.55;;;17.17;30.66
82392;BME280;72030;52.284;20.890;2024-01-16T04:32:25;98706.41;;;17.17;30.73
82392;BME280;72030;52.284;20.890;2024-01-16T04:34:54;98705.64;;;17.16;30.65
82392;BME280;72030;52.284;20.890;2024-01-16T04:37:22;98706.17;;;17.16;30.91
82392;BME280;72030;52.284;20.890;2024-01-16T04:39:51;98708.90;;;17.14;31.29
82392;BME280;72030;52.284;20.890;2024-01-16T04:42:21;98715.02;;;17.15;31.20
82392;BME280;72030;52.284;20.890;2024-01-16T04:44:50;98717.91;;;17.14;31.46
82392;BME280;72030;52.284;20.890;2024-01-16T04:47:19;98725.10;;;17.17;31.45
82392;BME280;72030;52.284;20.890;2024-01-16T04:49:48;98725.98;;;17.17;31.49
82392;BME280;72030;52.284;20.890;2024-01-16T04:52:17;98728.33;;;17.19;31.68
82392;BME280;72030;52.284;20.890;2024-01-16T04:54:46;98733.16;;;17.23;31.59
82392;BME280;72030;52.284;20.890;2024-01-16T04:57:15;98739.50;;;17.31;31.43
82392;BME280;72030;52.284;20.890;2024-01-16T04:59:44;98744.87;;;17.35;31.41
82392;BME280;72030;52.284;20.890;2024-01-16T05:02:13;98745.39;;;17.40;31.20
82392;BME280;72030;52.284;20.890;2024-01-16T05:04:44;98749.16;;;17.46;31.12
82392;BME280;72030;52.284;20.890;2024-01-16T05:07:17;98754.89;;;17.58;30.93
82392;BME280;72030;52.284;20.890;2024-01-16T05:09:47;98763.38;;;17.65;30.98
82392;BME280;72030;52.284;20.890;2024-01-16T05:12:16;98768.77;;;17.74;31.05
82392;BME280;72030;52.284;20.890;2024-01-16T05:14:45;98764.55;;;17.79;30.82
82392;BME280;72030;52.284;20.890;2024-01-16T05:17:14;98769.09;;;17.82;30.90
82392;BME280;72030;52.284;20.890;2024-01-16T05:19:44;98768.59;;;17.89;30.74
82392;BME280;72030;52.284;20.890;2024-01-16T05:22:13;98774.02;;;17.89;30.62
82392;BME280;72030;52.284;20.890;2024-01-16T05:24:42;98787.98;;;17.91;30.70
82392;BME280;72030;52.284;20.890;2024-01-16T05:27:10;98785.09;;;17.90;30.59
82392;BME280;72030;52.284;20.890;2024-01-16T05:29:41;98788.98;;;17.95;30.43
82392;BME280;72030;52.284;20.890;2024-01-16T05:32:10;98800.21;;;17.96;30.28
82392;BME280;72030;52.284;20.890;2024-01-16T05:34:39;98801.79;;;17.96;30.33
82392;BME280;72030;52.284;20.890;2024-01-16T05:37:08;98805.71;;;17.98;30.24
82392;BME280;72030;52.284;20.890;2024-01-16T05:39:37;98807.58;;;18.04;30.01
82392;BME280;72030;52.284;20.890;2024-01-16T05:42:06;98811.11;;;18.09;29.93
82392;BME280;72030;52.284;20.890;2024-01-16T05:44:35;98815.58;;;18.08;29.80
82392;BME280;72030;52.284;20.890;2024-01-16T05:47:04;98816.48;;;18.13;29.92
82392;BME280;72030;52.284;20.890;2024-01-16T05:49:33;98828.46;;;18.17;29.57
82392;BME280;72030;52.284;20.890;2024-01-16T05:52:02;98827.42;;;18.20;29.74
82392;BME280;72030;52.284;20.890;2024-01-16T05:54:31;98830.13;;;18.22;29.64
82392;BME280;72030;52.284;20.890;2024-01-16T05:56:59;98833.71;;;18.23;29.51
82392;BME280;72030;52.284;20.890;2024-01-16T05:59:28;98837.56;;;18.24;29.59
82392;BME280;72030;52.284;20.890;2024-01-16T06:01:57;98838.79;;;18.26;29.35
82392;BME280;72030;52.284;20.890;2024-01-16T06:04:26;98846.55;;;18.33;29.16
82392;BME280;72030;52.284;20.890;2024-01-16T06:06:55;98856.55;;;18.35;29.43
82392;BME280;72030;52.284;20.890;2024-01-16T06:09:23;98858.13;;;18.37;29.43
82392;BME280;72030;52.284;20.890;2024-01-16T06:11:52;98862.34;;;18.38;29.39
82392;BME280;72030;52.284;20.890;2024-01-16T06:14:21;98868.56;;;18.42;29.14
82392;BME280;72030;52.284;20.890;2024-01-16T06:16:50;98869.26;;;18.42;29.24
82392;BME280;72030;52.284;20.890;2024-01-16T06:19:19;98879.86;;;18.47;28.99
82392;BME280;72030;52.284;20.890;2024-01-16T06:21:49;98882.66;;;18.50;29.02
82392;BME280;72030;52.284;20.890;2024-01-16T06:24:17;98894.05;;;18.51;28.99
82392;BME280;72030;52.284;20.890;2024-01-16T06:26:46;98898.50;;;18.51;29.09
82392;BME280;72030;52.284;20.890;2024-01-16T06:29:15;98909.02;;;18.52;29.08
82392;BME280;72030;52.284;20.890;2024-01-16T06:31:44;98918.68;;;18.55;28.93
82392;BME280;72030;52.284;20.890;2024-01-16T06:34:13;98917.13;;;18.57;28.71
82392;BME280;72030;52.284;20.890;2024-01-16T06:36:42;98920.73;;;18.56;28.87
82392;BME280;72030;52.284;20.890;2024-01-16T06:39:11;98928.98;;;18.56;28.84
82392;BME280;72030;52.284;20.890;2024-01-16T06:41:41;98931.34;;;18.61;28.61
82392;BME280;72030;52.284;20.890;2024-01-16T06:44:11;98934.29;;;18.64;28.64
82392;BME280;72030;52.284;20.890;2024-01-16T06:46:39;98932.86;;;18.64;28.69
82392;BME280;72030;52.284;20.890;2024-01-16T06:49:08;98933.55;;;18.66;28.57
82392;BME280;72030;52.284;20.890;2024-01-16T06:51:37;98937.98;;;18.69;28.43
82392;BME280;72030;52.284;20.890;2024-01-16T06:54:06;98936.84;;;18.70;28.35
82392;BME280;72030;52.284;20.890;2024-01-16T06:56:34;98942.71;;;18.73;28.38
82392;BME280;72030;52.284;20.890;2024-01-16T06:59:03;98942.70;;;18.73;28.30
82392;BME280;72030;52.284;20.890;2024-01-16T07:01:32;98951.89;;;18.75;28.32
82392;BME280;72030;52.284;20.890;2024-01-16T07:04:01;98959.73;;;18.77;28.40
82392;BME280;72030;52.284;20.890;2024-01-16T07:06:31;98965.86;;;18.77;28.35
82392;BME280;72030;52.284;20.890;2024-01-16T07:09:00;98968.79;;;18.81;28.39
82392;BME280;72030;52.284;20.890;2024-01-16T07:11:28;98975.62;;;18.82;28.35
82392;BME280;72030;52.284;20.890;2024-01-16T07:13:58;98976.92;;;18.83;28.20
82392;BME280;72030;52.284;20.890;2024-01-16T07:16:27;98980.73;;;18.82;28.18
82392;BME280;72030;52.284;20.890;2024-01-16T07:18:56;98986.90;;;18.85;28.37
82392;BME280;72030;52.284;20.890;2024-01-16T07:21:24;98993.81;;;18.84;28.63
82392;BME280;72030;52.284;20.890;2024-01-16T07:23:53;98996.52;;;18.86;28.74
82392;BME280;72030;52.284;20.890;2024-01-16T07:26:23;99003.67;;;18.97;28.63
82392;BME280;72030;52.284;20.890;2024-01-16T07:28:52;99011.45;;;19.00;28.71
82392;BME280;72030;52.284;20.890;2024-01-16T07:31:21;99027.38;;;19.07;28.40
82392;BME280;72030;52.284;20.890;2024-01-16T07:33:50;99034.85;;;19.06;28.27
82392;BME280;72030;52.284;20.890;2024-01-16T07:36:19;99037.59;;;19.05;28.51
82392;BME280;72030;52.284;20.890;2024-01-16T07:38:48;99036.16;;;19.03;28.59
82392;BME280;72030;52.284;20.890;2024-01-16T07:41:17;99042.11;;;19.03;28.63
82392;BME280;72030;52.284;20.890;2024-01-16T07:43:46;99049.09;;;19.02;28.57
82392;BME280;72030;52.284;20.890;2024-01-16T07:46:14;99056.45;;;19.01;28.48
82392;BME280;72030;52.284;20.890;2024-01-16T07:48:43;99062.58;;;19.04;28.31
82392;BME280;72030;52.284;20.890;2024-01-16T07:51:13;99065.23;;;19.06;28.26
82392;BME280;72030;52.284;20.890;2024-01-16T07:53:42;99073.47;;;19.07;28.21
82392;BME280;72030;52.284;20.890;2024-01-16T07:56:11;99078.80;;;19.07;28.12
82392;BME280;72030;52.284;20.890;2024-01-16T07:58:41;99075.41;;;19.07;28.13
82392;BME280;72030;52.284;20.890;2024-01-16T08:01:10;99076.80;;;19.08;27.81
82392;BME280;72030;52.284;20.890;2024-01-16T08:03:39;99078.59;;;19.10;27.90
82392;BME280;72030;52.284;20.890;2024-01-16T08:06:08;99082.35;;;19.11;27.81
82392;BME280;72030;52.284;20.890;2024-01-16T08:08:36;99083.55;;;19.09;27.75
82392;BME280;72030;52.284;20.890;2024-01-16T08:11:05;99087.30;;;19.09;27.62
82392;BME280;72030;52.284;20.890;2024-01-16T08:13:34;99090.36;;;19.11;27.59
82392;BME280;72030;52.284;20.890;2024-01-16T08:16:04;99087.60;;;19.12;27.52
82392;BME280;72030;52.284;20.890;2024-01-16T08:18:34;99094.41;;;19.18;28.63
82392;BME280;72030;52.284;20.890;2024-01-16T08:21:04;99097.06;;;19.36;29.21
82392;BME280;72030;52.284;20.890;2024-01-16T08:23:33;99099.20;;;19.45;29.49
82392;BME280;72030;52.284;20.890;2024-01-16T08:26:03;99099.02;;;19.53;29.63
82392;BME280;72030;52.284;20.890;2024-01-16T08:28:32;99103.20;;;19.54;29.60
82392;BME280;72030;52.284;20.890;2024-01-16T08:31:01;99103.02;;;19.58;29.28
82392;BME280;72030;52.284;20.890;2024-01-16T08:33:30;99112.66;;;19.62;28.93
82392;BME280;72030;52.284;20.890;2024-01-16T08:36:00;99110.09;;;19.69;28.61
82392;BME280;72030;52.284;20.890;2024-01-16T08:38:29;99115.71;;;19.76;29.08
82392;BME280;72030;52.284;20.890;2024-01-16T08:40:58;99122.05;;;19.79;28.97
82392;BME280;72030;52.284;20.890;2024-01-16T08:43:27;99125.91;;;19.87;28.36
82392;BME280;72030;52.284;20.890;2024-01-16T08:45:56;99129.15;;;19.91;28.58
82392;BME280;72030;52.284;20.890;2024-01-16T08:48:24;99135.55;;;19.95;27.82
82392;BME280;72030;52.284;20.890;2024-01-16T08:50:53;99138.91;;;19.95;28.02
82392;BME280;72030;52.284;20.890;2024-01-16T08:53:22;99143.48;;;19.96;27.96
82392;BME280;72030;52.284;20.890;2024-01-16T08:55:51;99151.58;;;19.97;27.67
82392;BME280;72030;52.284;20.890;2024-01-16T08:58:20;99154.31;;;19.88;27.12
82392;BME280;72030;52.284;20.890;2024-01-16T09:00:49;99159.70;;;19.95;26.63
82392;BME280;72030;52.284;20.890;2024-01-16T09:03:18;99163.67;;;19.86;26.58
82392;BME280;72030;52.284;20.890;2024-01-16T09:05:47;99164.83;;;19.77;26.52
82392;BME280;72030;52.284;20.890;2024-01-16T09:08:16;99163.63;;;19.82;27.59
82392;BME280;72030;52.284;20.890;2024-01-16T09:10:45;99164.84;;;20.01;27.10
82392;BME280;72030;52.284;20.890;2024-01-16T09:13:13;99172.07;;;20.02;27.13
82392;BME280;72030;52.284;20.890;2024-01-16T09:15:42;99173.08;;;20.05;27.03
82392;BME280;72030;52.284;20.890;2024-01-16T09:18:11;99177.45;;;20.18;27.78
82392;BME280;72030;52.284;20.890;2024-01-16T09:20:40;99176.47;;;20.21;27.60
82392;BME280;72030;52.284;20.890;2024-01-16T09:23:08;99173.84;;;20.14;26.69
82392;BME280;72030;52.284;20.890;2024-01-16T09:25:38;99178.20;;;20.12;26.66
82392;BME280;72030;52.284;20.890;2024-01-16T09:28:07;99176.54;;;20.20;27.27
82392;BME280;72030;52.284;20.890;2024-01-16T09:30:36;99175.15;;;20.22;26.75
82392;BME280;72030;52.284;20.890;2024-01-16T09:33:06;99175.58;;;20.30;27.13
82392;BME280;72030;52.284;20.890;2024-01-16T09:35:37;99174.20;;;20.25;26.75
82392;BME280;72030;52.284;20.890;2024-01-16T09:38:06;99182.55;;;20.30;27.06
82392;BME280;72030;52.284;20.890;2024-01-16T09:40:36;99181.48;;;20.37;26.91
82392;BME280;72030;52.284;20.890;2024-01-16T09:43:05;99183.98;;;20.37;26.68
82392;BME280;72030;52.284;20.890;2024-01-16T09:45:38;99187.77;;;20.31;26.55
82392;BME280;72030;52.284;20.890;2024-01-16T09:48:08;99191.33;;;20.33;26.32
82392;BME280;72030;52.284;20.890;2024-01-16T09:50:37;99198.49;;;20.29;26.38
82392;BME280;72030;52.284;20.890;2024-01-16T09:53:06;99202.23;;;20.32;26.37
82392;BME280;72030;52.284;20.890;2024-01-16T09:55:35;99211.16;;;20.33;26.33
82392;BME280;72030;52.284;20.890;2024-01-16T09:58:05;99212.35;;;20.34;25.93
82392;BME280;72030;52.284;20.890;2024-01-16T10:00:36;99216.77;;;20.39;26.09
82392;BME280;72030;52.284;20.890;2024-01-16T10:03:05;99219.33;;;20.40;26.01
82392;BME280;72030;52.284;20.890;2024-01-16T10:05:35;99217.33;;;20.39;25.99
82392;BME280;72030;52.284;20.890;2024-01-16T10:08:04;99215.98;;;20.43;25.85
82392;BME280;72030;52.284;20.890;2024-01-16T10:10:33;99220.93;;;20.45;25.62
82392;BME280;72030;52.284;20.890;2024-01-16T10:13:02;99229.23;;;20.43;25.78
82392;BME280;72030;52.284;20.890;2024-01-16T10:15:32;99235.20;;;20.46;25.52
82392;BME280;72030;52.284;20.890;2024-01-16T10:18:02;99235.99;;;20.43;25.33
82392;BME280;72030;52.284;20.890;2024-01-16T10:20:35;99240.88;;;20.39;25.41
82392;BME280;72030;52.284;20.890;2024-01-16T10:23:04;99241.02;;;20.44;25.68
82392;BME280;72030;52.284;20.890;2024-01-16T10:25:33;99251.23;;;20.52;25.50
82392;BME280;72030;52.284;20.890;2024-01-16T10:28:06;99246.17;;;20.53;25.53
82392;BME280;72030;52.284;20.890;2024-01-16T10:30:39;99247.33;;;20.47;25.20
82392;BME280;72030;52.284;20.890;2024-01-16T10:33:15;99250.11;;;20.46;25.16
82392;BME280;72030;52.284;20.890;2024-01-16T10:35:45;99252.30;;;20.45;25.13
82392;BME280;72030;52.284;20.890;2024-01-16T10:38:21;99255.84;;;20.42;25.13
82392;BME280;72030;52.284;20.890;2024-01-16T10:41:08;99259.31;;;20.46;24.98
82392;BME280;72030;52.284;20.890;2024-01-16T10:43:37;99263.39;;;20.44;25.13
82392;BME280;72030;52.284;20.890;2024-01-16T10:46:12;99268.39;;;20.41;24.89
82392;BME280;72030;52.284;20.890;2024-01-16T10:48:43;99268.81;;;20.34;24.81
82392;BME280;72030;52.284;20.890;2024-01-16T10:51:14;99271.42;;;20.33;24.88
82392;BME280;72030;52.284;20.890;2024-01-16T10:53:44;99271.20;;;20.34;24.87
82392;BME280;72030;52.284;20.890;2024-01-16T10:56:16;99263.91;;;20.39;24.76
82392;BME280;72030;52.284;20.890;2024-01-16T10:58:46;99263.98;;;20.40;24.87
82392;BME280;72030;52.284;20.890;2024-01-16T11:01:21;99268.76;;;20.33;24.69
82392;BME280;72030;52.284;20.890;2024-01-16T11:03:51;99268.25;;;20.30;25.01
82392;BME280;72030;52.284;20.890;2024-01-16T11:06:25;99268.86;;;20.29;24.90
82392;BME280;72030;52.284;20.890;2024-01-16T11:08:55;99273.75;;;20.30;24.90
82392;BME280;72030;52.284;20.890;2024-01-16T11:11:25;99279.20;;;20.31;24.81
82392;BME280;72030;52.284;20.890;2024-01-16T11:13:56;99278.39;;;20.27;25.05
82392;BME280;72030;52.284;20.890;2024-01-16T11:16:27;99279.35;;;20.19;25.34
82392;BME280;72030;52.284;20.890;2024-01-16T11:18:57;99285.98;;;20.16;24.89
82392;BME280;72030;52.284;20.890;2024-01-16T11:21:27;99285.34;;;20.17;25.17
82392;BME280;72030;52.284;20.890;2024-01-16T11:23:56;99293.17;;;20.19;24.83
82392;BME280;72030;52.284;20.890;2024-01-16T11:26:29;99293.09;;;20.13;25.03
82392;BME280;72030;52.284;20.890;2024-01-16T11:29:00;99291.75;;;20.12;24.71
82392;BME280;72030;52.284;20.890;2024-01-16T11:31:31;99289.95;;;20.12;24.78
82392;BME280;72030;52.284;20.890;2024-01-16T11:34:02;99290.90;;;20.17;24.86
82392;BME280;72030;52.284;20.890;2024-01-16T11:39:10;99289.02;;;20.05;24.96
82392;BME280;72030;52.284;20.890;2024-01-16T11:41:52;99291.36;;;20.09;24.81
82392;BME280;72030;52.284;20.890;2024-01-16T11:44:44;99301.00;;;20.11;24.94
82392;BME280;72030;52.284;20.890;2024-01-16T11:47:19;99293.92;;;20.11;24.81
82392;BME280;72030;52.284;20.890;2024-01-16T11:49:49;99298.14;;;20.12;25.01
82392;BME280;72030;52.284;20.890;2024-01-16T11:52:40;99301.66;;;20.12;24.84
82392;BME280;72030;52.284;20.890;2024-01-16T11:58:02;99313.63;;;20.10;24.58
82392;BME280;72030;52.284;20.890;2024-01-16T12:00:40;99322.30;;;20.13;24.96
82392;BME280;72030;52.284;20.890;2024-01-16T12:03:10;99318.20;;;20.14;24.44
82392;BME280;72030;52.284;20.890;2024-01-16T12:05:39;99320.52;;;20.18;24.34
82392;BME280;72030;52.284;20.890;2024-01-16T12:08:08;99319.89;;;20.17;24.32
82392;BME280;72030;52.284;20.890;2024-01-16T12:10:47;99317.05;;;20.15;24.50
82392;BME280;72030;52.284;20.890;2024-01-16T12:13:16;99320.83;;;20.16;24.66
82392;BME280;72030;52.284;20.890;2024-01-16T12:15:45;99322.48;;;20.13;24.47
82392;BME280;72030;52.284;20.890;2024-01-16T12:18:19;99323.65;;;20.14;24.58
82392;BME280;72030;52.284;20.890;2024-01-16T12:20:48;99328.15;;;20.16;24.50
82392;BME280;72030;52.284;20.890;2024-01-16T12:23:17;99326.69;;;20.16;24.64
82392;BME280;72030;52.284;20.890;2024-01-16T12:25:53;99330.05;;;20.16;24.79
82392;BME280;72030;52.284;20.890;2024-01-16T12:28:22;99339.36;;;20.17;24.49
82392;BME280;72030;52.284;20.890;2024-01-16T12:30:51;99341.36;;;20.16;24.55
82392;BME280;72030;52.284;20.890;2024-01-16T12:33:24;99338.17;;;20.16;24.61
82392;BME280;72030;52.284;20.890;2024-01-16T12:36:02;99334.80;;;20.17;24.65
82392;BME280;72030;52.284;20.890;2024-01-16T12:38:31;99337.06;;;20.17;24.49
82392;BME280;72030;52.284;20.890;2024-01-16T12:41:00;99344.96;;;20.16;24.41
82392;BME280;72030;52.284;20.890;2024-01-16T12:43:30;99353.45;;;20.16;24.62
82392;BME280;72030;52.284;20.890;2024-01-16T12:45:59;99357.90;;;20.16;24.56
82392;BME280;72030;52.284;20.890;2024-01-16T12:48:29;99359.52;;;20.18;24.64
82392;BME280;72030;52.284;20.890;2024-01-16T12:51:01;99363.83;;;20.15;24.24
82392;BME280;72030;52.284;20.890;2024-01-16T12:53:31;99356.73;;;20.12;24.27
82392;BME280;72030;52.284;20.890;2024-01-16T12:56:01;99362.04;;;20.15;24.44
82392;BME280;72030;52.284;20.890;2024-01-16T12:58:34;99367.79;;;20.18;24.45
82392;BME280;72030;52.284;20.890;2024-01-16T13:01:24;99364.95;;;20.16;24.43
82392;BME280;72030;52.284;20.890;2024-01-16T13:03:53;99363.98;;;20.15;24.74
82392;BME280;72030;52.284;20.890;2024-01-16T13:06:23;99366.19;;;20.11;24.48
82392;BME280;72030;52.284;20.890;2024-01-16T13:09:05;99369.29;;;20.27;25.94